createdAt,value
2022-12-05T00:01:51.923Z,7.10
2022-12-05T00:04:20.054Z,7.00
2022-12-05T00:06:49.416Z,7.00
2022-12-05T00:09:17.393Z,7.00
2022-12-05T00:11:47.050Z,7.00
2022-12-05T00:14:15.394Z,7.00
2022-12-05T00:16:44.589Z,6.90
2022-12-05T00:19:14.419Z,6.90
2022-12-05T00:21:42.818Z,6.90
2022-12-05T00:24:15.032Z,6.80
2022-12-05T00:26:43.745Z,6.80
2022-12-05T00:29:12.103Z,6.80
2022-12-05T00:31:40.187Z,6.80
2022-12-05T00:34:08.414Z,6.70
2022-12-05T00:36:37.739Z,6.70
2022-12-05T00:39:08.883Z,6.70
2022-12-05T00:41:38.838Z,6.60
2022-12-05T00:44:07.019Z,6.60
2022-12-05T00:46:36.336Z,6.60
2022-12-05T00:49:06.715Z,6.70
2022-12-05T00:51:37.393Z,6.60
2022-12-05T00:54:07.599Z,6.60
2022-12-05T00:56:37.376Z,6.60
2022-12-05T00:59:06.656Z,6.60
2022-12-05T01:01:36.577Z,6.60
2022-12-05T01:04:06.863Z,6.70
2022-12-05T01:06:35.254Z,6.70
2022-12-05T01:09:04.405Z,6.70
2022-12-05T01:11:37.635Z,6.70
2022-12-05T01:14:10.354Z,6.80
2022-12-05T01:16:40.009Z,6.70
2022-12-05T01:19:11.930Z,6.70
2022-12-05T01:21:39.934Z,6.60
2022-12-05T01:24:08.590Z,6.60
2022-12-05T01:26:36.654Z,6.60
2022-12-05T01:29:05.828Z,6.70
2022-12-05T01:31:37.236Z,6.60
2022-12-05T01:34:07.499Z,6.60
2022-12-05T01:36:35.815Z,6.70
2022-12-05T01:39:04.498Z,6.60
2022-12-05T01:41:35.169Z,6.80
2022-12-05T01:44:05.298Z,6.70
2022-12-05T01:46:36.892Z,6.80
2022-12-05T01:49:08.909Z,6.70
2022-12-05T01:51:39.627Z,6.70
2022-12-05T01:54:08.812Z,6.70
2022-12-05T01:57:07.183Z,6.70
2022-12-05T01:59:39.241Z,6.60
2022-12-05T02:02:09.225Z,6.60
2022-12-05T02:04:44.316Z,6.60
2022-12-05T02:07:12.339Z,6.60
2022-12-05T02:10:05.469Z,6.60
2022-12-05T02:12:33.802Z,6.50
2022-12-05T02:15:14.237Z,6.60
2022-12-05T02:17:55.353Z,6.60
2022-12-05T02:20:34.926Z,6.60
2022-12-05T02:23:28.328Z,6.60
2022-12-05T02:30:05.733Z,6.60
2022-12-05T02:32:48.300Z,6.60
2022-12-05T02:35:28.886Z,6.60
2022-12-05T02:38:04.255Z,6.70
2022-12-05T02:40:40.984Z,6.70
2022-12-05T02:43:14.637Z,6.70
2022-12-05T02:45:45.282Z,6.70
2022-12-05T02:48:18.243Z,6.70
2022-12-05T02:50:50.177Z,6.60
2022-12-05T02:53:21.202Z,6.60
2022-12-05T02:55:49.941Z,6.50
2022-12-05T02:58:23.762Z,6.50
2022-12-05T03:00:57.470Z,6.40
2022-12-05T03:03:26.851Z,6.30
2022-12-05T03:06:02.354Z,6.30
2022-12-05T03:08:35.176Z,6.30
2022-12-05T03:11:04.678Z,6.30
2022-12-05T03:13:40.513Z,6.20
2022-12-05T03:16:15.945Z,6.20
2022-12-05T03:18:49.987Z,6.10
2022-12-05T03:21:26.171Z,6.10
2022-12-05T03:23:57.570Z,6.20
2022-12-05T03:26:42.386Z,6.10
2022-12-05T03:29:22.236Z,6.10
2022-12-05T03:31:59.561Z,6.10
2022-12-05T03:34:38.637Z,6.10
2022-12-05T03:37:12.335Z,6.10
2022-12-05T03:39:45.904Z,6.20
2022-12-05T03:42:15.252Z,6.20
2022-12-05T03:44:49.769Z,6.30
2022-12-05T03:47:25.636Z,6.30
2022-12-05T03:49:59.503Z,6.30
2022-12-05T03:52:45.800Z,6.30
2022-12-05T03:55:22.002Z,6.30
2022-12-05T03:57:56.586Z,6.40
2022-12-05T04:03:17.927Z,6.30
2022-12-05T04:05:50.552Z,6.20
2022-12-05T04:08:23.647Z,6.20
2022-12-05T04:10:54.768Z,6.20
2022-12-05T04:13:30.436Z,6.20
2022-12-05T04:16:21.248Z,6.20
2022-12-05T04:18:57.145Z,6.10
2022-12-05T04:21:40.958Z,6.10
2022-12-05T04:24:31.773Z,6.00
2022-12-05T04:27:11.655Z,6.00
2022-12-05T04:29:47.089Z,5.90
2022-12-05T04:32:15.882Z,5.90
2022-12-05T04:34:52.913Z,5.90
2022-12-05T04:37:26.363Z,5.90
2022-12-05T04:39:59.555Z,5.90
2022-12-05T04:42:30.045Z,5.90
2022-12-05T04:45:03.426Z,5.90
2022-12-05T04:47:35.703Z,6.00
2022-12-05T04:50:07.535Z,6.00
2022-12-05T04:52:37.746Z,5.90
2022-12-05T04:55:09.652Z,5.90
2022-12-05T04:57:43.714Z,5.80
2022-12-05T05:00:12.699Z,5.80
2022-12-05T05:02:48.028Z,5.80
2022-12-05T05:05:20.646Z,5.80
2022-12-05T05:07:56.733Z,5.90
2022-12-05T05:10:33.480Z,5.90
2022-12-05T05:13:01.966Z,5.90
2022-12-05T05:15:30.210Z,5.90
2022-12-05T05:17:59.054Z,5.90
2022-12-05T05:20:28.778Z,5.80
2022-12-05T05:22:58.629Z,5.80
2022-12-05T05:25:27.744Z,5.80
2022-12-05T05:27:57.332Z,5.70
2022-12-05T05:30:26.514Z,5.70
2022-12-05T05:32:55.491Z,5.70
2022-12-05T05:35:23.573Z,5.60
2022-12-05T05:37:53.130Z,5.70
2022-12-05T05:40:21.336Z,5.70
2022-12-05T05:42:50.924Z,5.70
2022-12-05T05:45:19.194Z,5.70
2022-12-05T05:47:49.399Z,5.70
2022-12-05T05:50:21.365Z,5.70
2022-12-05T05:52:50.236Z,5.60
2022-12-05T05:55:21.851Z,5.50
2022-12-05T05:57:50.016Z,5.50
2022-12-05T06:00:20.543Z,5.50
2022-12-05T06:02:48.662Z,5.40
2022-12-05T06:05:17.131Z,5.50
2022-12-05T06:07:45.262Z,5.30
2022-12-05T06:10:13.544Z,5.30
2022-12-05T06:12:43.169Z,5.10
2022-12-05T06:15:12.044Z,5.10
2022-12-05T06:17:40.319Z,5.10
2022-12-05T06:20:10.398Z,5.10
2022-12-05T06:22:38.524Z,5.00
2022-12-05T06:25:07.906Z,4.90
2022-12-05T06:27:36.084Z,4.90
2022-12-05T06:30:06.725Z,4.90
2022-12-05T06:32:34.968Z,5.00
2022-12-05T06:35:07.870Z,5.00
2022-12-05T06:37:40.898Z,5.00
2022-12-05T06:40:10.491Z,5.10
2022-12-05T06:42:38.655Z,5.10
2022-12-05T06:45:09.300Z,5.20
2022-12-05T06:47:39.776Z,5.20
2022-12-05T06:50:12.283Z,5.20
2022-12-05T06:52:43.576Z,5.20
2022-12-05T06:55:12.015Z,5.10
2022-12-05T06:57:42.907Z,5.10
2022-12-05T07:00:31.912Z,5.10
2022-12-05T07:02:59.949Z,5.10
2022-12-05T07:05:31.048Z,5.10
2022-12-05T07:08:02.031Z,5.10
2022-12-05T07:10:33.107Z,5.10
2022-12-05T07:13:01.087Z,5.10
2022-12-05T07:15:33.970Z,5.10
2022-12-05T07:18:02.487Z,5.10
2022-12-05T07:21:03.425Z,5.10
2022-12-05T07:23:20.651Z,5.10
2022-12-05T07:25:51.349Z,5.20
2022-12-05T07:28:24.671Z,5.10
2022-12-05T07:31:04.834Z,5.10
2022-12-05T07:33:33.061Z,5.10
2022-12-05T07:36:02.454Z,5.20
2022-12-05T07:38:30.742Z,5.20
2022-12-05T07:41:01.243Z,5.20
2022-12-05T07:43:31.722Z,5.10
2022-12-05T07:46:05.278Z,5.20
2022-12-05T07:51:06.857Z,5.10
2022-12-05T07:53:35.827Z,5.00
2022-12-05T07:56:08.378Z,5.10
2022-12-05T07:58:41.677Z,5.10
2022-12-05T08:01:18.644Z,5.20
2022-12-05T08:03:47.728Z,5.00
2022-12-05T08:06:17.569Z,5.00
2022-12-05T08:08:49.823Z,5.00
2022-12-05T08:11:20.046Z,5.00
2022-12-05T08:13:48.717Z,5.10
2022-12-05T08:16:24.059Z,5.10
2022-12-05T08:18:55.775Z,5.20
2022-12-05T08:21:25.173Z,5.10
2022-12-05T08:23:53.938Z,5.20
2022-12-05T08:26:24.756Z,5.10
2022-12-05T08:28:54.321Z,5.10
2022-12-05T08:31:25.234Z,5.20
2022-12-05T08:33:58.812Z,5.20
2022-12-05T08:36:29.306Z,5.20
2022-12-05T08:38:58.521Z,5.20
2022-12-05T08:41:28.725Z,5.10
2022-12-05T08:43:57.008Z,5.30
2022-12-05T08:46:26.563Z,5.40
2022-12-05T08:48:54.770Z,5.50
2022-12-05T08:51:23.139Z,5.60
2022-12-05T08:53:51.249Z,5.70
2022-12-05T08:56:25.032Z,5.70
2022-12-05T08:59:01.281Z,5.80
2022-12-05T09:01:34.457Z,6.00
2022-12-05T09:04:04.741Z,6.10
2022-12-05T09:06:34.384Z,6.00
2022-12-05T09:09:05.470Z,5.80
2022-12-05T09:11:35.739Z,5.70
2022-12-05T09:14:05.145Z,5.60
2022-12-05T09:16:39.651Z,5.50
2022-12-05T09:19:12.087Z,5.40
2022-12-05T09:21:42.566Z,5.40
2022-12-05T09:24:12.392Z,5.40
2022-12-05T09:26:41.278Z,5.50
2022-12-05T09:29:15.762Z,5.50
2022-12-05T09:31:48.164Z,5.50
2022-12-05T09:34:18.016Z,5.60
2022-12-05T09:36:49.669Z,5.60
2022-12-05T09:39:17.791Z,5.60
2022-12-05T09:42:08.404Z,5.70
2022-12-05T09:45:12.655Z,5.70
2022-12-05T09:47:50.914Z,5.70
2022-12-05T09:50:23.109Z,5.00
2022-12-05T09:53:06.126Z,5.50
2022-12-05T09:55:45.163Z,5.50
2022-12-05T09:58:27.416Z,5.60
2022-12-05T10:01:01.945Z,5.60
2022-12-05T10:03:38.753Z,5.70
2022-12-05T10:06:19.707Z,5.70
2022-12-05T10:09:13.658Z,5.80
2022-12-05T10:11:47.851Z,5.80
2022-12-05T10:14:27.620Z,5.80
2022-12-05T10:16:57.508Z,5.80
2022-12-05T10:19:32.127Z,5.90
2022-12-05T10:22:05.665Z,5.90
2022-12-05T10:24:38.365Z,6.00
2022-12-05T10:27:08.902Z,6.10
2022-12-05T10:29:41.376Z,6.20
2022-12-05T10:32:16.815Z,6.20
2022-12-05T10:34:47.298Z,6.20
2022-12-05T10:37:18.411Z,6.30
2022-12-05T10:39:47.590Z,6.30
2022-12-05T10:42:18.627Z,6.20
2022-12-05T10:44:47.066Z,6.20
2022-12-05T10:47:15.202Z,6.20
2022-12-05T10:49:45.258Z,6.20
2022-12-05T10:52:14.565Z,6.20
2022-12-05T10:54:47.118Z,6.30
2022-12-05T10:57:23.777Z,6.50
2022-12-05T10:59:52.306Z,6.40
2022-12-05T11:02:26.054Z,6.50
2022-12-05T11:04:56.821Z,6.50
2022-12-05T11:07:29.956Z,6.40
2022-12-05T11:10:00.101Z,6.40
2022-12-05T11:12:31.464Z,6.30
2022-12-05T11:15:03.221Z,6.20
2022-12-05T11:17:37.857Z,6.20
2022-12-05T11:20:35.768Z,6.50
2022-12-05T11:23:18.793Z,6.20
2022-12-05T11:25:47.036Z,6.30
2022-12-05T11:28:30.589Z,6.40
2022-12-05T11:31:00.856Z,6.50
2022-12-05T11:33:31.023Z,6.50
2022-12-05T11:36:12.600Z,6.40
2022-12-05T11:38:42.669Z,6.60
2022-12-05T11:41:34.104Z,6.60
2022-12-05T11:44:19.834Z,6.60
2022-12-05T11:46:59.543Z,6.70
2022-12-05T11:49:41.273Z,6.60
2022-12-05T11:52:22.599Z,6.60
2022-12-05T11:55:06.133Z,6.60
2022-12-05T11:58:06.931Z,6.60
2022-12-05T12:00:42.506Z,6.60
2022-12-05T12:03:43.207Z,6.60
2022-12-05T12:06:26.665Z,6.50
2022-12-05T12:09:21.904Z,6.60
2022-12-05T12:11:58.626Z,6.70
2022-12-05T12:14:31.104Z,6.80
2022-12-05T12:17:10.248Z,6.90
2022-12-05T12:20:03.127Z,6.90
2022-12-05T12:22:49.312Z,6.90
2022-12-05T12:25:28.420Z,6.80
2022-12-05T12:28:11.086Z,7.20
2022-12-05T12:30:58.198Z,6.80
2022-12-05T12:33:35.021Z,6.70
2022-12-05T12:36:13.040Z,6.70
2022-12-05T12:39:05.132Z,6.70
2022-12-05T12:41:50.748Z,6.70
2022-12-05T12:44:55.961Z,6.60
2022-12-05T12:47:37.513Z,6.60
2022-12-05T12:50:14.890Z,6.50
2022-12-05T12:52:56.371Z,6.50
2022-12-05T12:55:32.556Z,6.50
2022-12-05T12:58:17.736Z,6.40
2022-12-05T13:00:57.234Z,6.40
2022-12-05T13:03:29.612Z,6.40
2022-12-05T13:06:00.954Z,6.40
2022-12-05T13:08:35.027Z,6.40
2022-12-05T13:11:08.781Z,6.30
2022-12-05T13:13:41.388Z,6.30
2022-12-05T13:16:10.404Z,6.40
2022-12-05T13:18:38.524Z,6.40
2022-12-05T13:21:10.104Z,6.40
2022-12-05T13:23:46.543Z,6.30
2022-12-05T13:26:15.448Z,6.30
2022-12-05T13:28:52.218Z,6.40
2022-12-05T13:31:20.998Z,6.40
2022-12-05T13:33:51.023Z,6.40
2022-12-05T13:36:38.787Z,6.50
2022-12-05T13:39:26.334Z,6.50
2022-12-05T13:42:16.361Z,6.60
2022-12-05T13:44:49.535Z,6.60
2022-12-05T13:47:29.593Z,6.50
2022-12-05T13:50:05.295Z,6.60
2022-12-05T13:52:42.462Z,6.50
2022-12-05T13:55:23.315Z,6.40
2022-12-05T13:57:54.164Z,6.40
2022-12-05T14:00:33.391Z,6.50
2022-12-05T14:03:07.146Z,6.50
2022-12-05T14:05:54.022Z,6.50
2022-12-05T14:08:53.826Z,6.50
2022-12-05T14:11:22.584Z,6.50
2022-12-05T14:13:51.004Z,6.50
2022-12-05T14:16:53.593Z,6.50
2022-12-05T14:19:42.308Z,6.90
2022-12-05T14:22:36.051Z,6.40
2022-12-05T14:25:19.569Z,6.40
2022-12-05T14:27:57.008Z,6.40
2022-12-05T14:30:30.809Z,6.40
2022-12-05T14:33:02.826Z,6.40
2022-12-05T14:35:33.093Z,6.40
2022-12-05T14:38:03.917Z,6.40
2022-12-05T14:40:34.733Z,6.40
2022-12-05T14:43:05.417Z,6.40
2022-12-05T14:45:37.152Z,6.40
2022-12-05T14:48:26.696Z,6.40
2022-12-05T14:50:56.155Z,6.40
2022-12-05T14:53:43.542Z,6.40
2022-12-05T14:56:17.804Z,6.40
2022-12-05T14:58:51.992Z,6.40
2022-12-05T15:01:24.525Z,6.40
2022-12-05T15:04:17.369Z,6.40
2022-12-05T15:06:54.681Z,6.40
2022-12-05T15:09:39.396Z,6.40
2022-12-05T15:12:19.034Z,6.40
2022-12-05T15:14:54.165Z,6.40
2022-12-05T15:17:30.974Z,6.40
2022-12-05T15:20:05.551Z,6.30
2022-12-05T15:22:38.234Z,6.20
2022-12-05T15:25:21.902Z,6.20
2022-12-05T15:27:57.388Z,6.20
2022-12-05T15:30:26.538Z,6.20
2022-12-05T15:32:59.394Z,6.20
2022-12-05T15:35:33.368Z,6.20
2022-12-05T15:38:05.630Z,6.20
2022-12-05T15:40:38.275Z,6.30
2022-12-05T15:43:29.249Z,6.30
2022-12-05T15:46:17.581Z,6.30
2022-12-05T15:48:45.619Z,6.30
2022-12-05T15:51:15.214Z,6.30
2022-12-05T15:53:49.652Z,6.40
2022-12-05T15:56:21.542Z,6.30
2022-12-05T15:58:53.862Z,6.30
2022-12-05T16:01:23.561Z,6.30
2022-12-05T16:04:02.509Z,6.30
2022-12-05T16:06:35.839Z,6.30
2022-12-05T16:09:11.510Z,6.40
2022-12-05T16:11:41.188Z,6.40
2022-12-05T16:14:09.944Z,6.40
2022-12-05T16:16:39.741Z,6.30
2022-12-05T16:19:15.181Z,6.30
2022-12-05T16:21:46.914Z,6.30
2022-12-05T16:24:19.688Z,6.30
2022-12-05T16:26:59.643Z,6.30
2022-12-05T16:29:29.201Z,6.20
2022-12-05T16:31:57.948Z,6.20
2022-12-05T16:34:28.332Z,6.20
2022-12-05T16:36:58.652Z,6.20
2022-12-05T16:39:29.061Z,6.20
2022-12-05T16:41:57.453Z,6.20
2022-12-05T16:45:02.343Z,6.20
2022-12-05T16:47:57.005Z,6.20
2022-12-05T16:50:31.255Z,6.20
2022-12-05T16:53:13.898Z,6.20
2022-12-05T16:55:44.663Z,6.20
2022-12-05T16:58:15.284Z,6.20
2022-12-05T17:00:43.450Z,6.20
2022-12-05T17:03:33.603Z,6.20
2022-12-05T17:06:02.375Z,6.20
2022-12-05T17:08:31.935Z,6.20
2022-12-05T17:11:01.954Z,6.20
2022-12-05T17:13:31.329Z,6.10
2022-12-05T17:15:59.631Z,6.20
2022-12-05T17:18:31.817Z,6.20
2022-12-05T17:21:03.091Z,6.20
2022-12-05T17:23:32.820Z,6.10
2022-12-05T17:26:04.054Z,6.10
2022-12-05T17:29:10.228Z,6.10
2022-12-05T17:31:38.378Z,6.10
2022-12-05T17:34:15.763Z,6.10
2022-12-05T17:36:44.214Z,6.10
2022-12-05T17:39:14.053Z,6.00
2022-12-05T17:41:42.387Z,6.00
2022-12-05T17:44:14.504Z,6.00
2022-12-05T17:46:44.631Z,6.00
2022-12-05T17:49:15.137Z,6.00
2022-12-05T17:52:05.623Z,5.90
2022-12-05T17:54:32.788Z,5.90
2022-12-05T17:57:00.851Z,5.90
2022-12-05T17:59:28.851Z,5.90
2022-12-05T18:01:56.948Z,5.80
2022-12-05T18:04:24.985Z,5.80
2022-12-05T18:06:53.004Z,5.70
2022-12-05T18:09:21.185Z,5.80
2022-12-05T18:11:50.588Z,5.70
2022-12-05T18:14:18.557Z,5.60
2022-12-05T18:16:56.650Z,5.70
2022-12-05T18:19:24.748Z,5.60
2022-12-05T18:21:52.944Z,5.50
2022-12-05T18:24:21.054Z,5.50
2022-12-05T18:27:28.663Z,5.50
2022-12-05T18:29:58.244Z,5.60
2022-12-05T18:32:26.900Z,5.60
2022-12-05T18:35:15.159Z,5.60
2022-12-05T18:37:43.391Z,5.60
2022-12-05T18:40:13.919Z,5.60
2022-12-05T18:42:41.953Z,5.60
2022-12-05T18:45:12.373Z,5.60
2022-12-05T18:47:40.303Z,5.60
2022-12-05T18:50:09.841Z,5.70
2022-12-05T18:52:37.911Z,5.70
2022-12-05T18:55:17.336Z,5.70
2022-12-05T18:57:46.020Z,5.70
2022-12-05T19:00:16.593Z,5.70
2022-12-05T19:02:44.667Z,5.70
2022-12-05T19:05:12.742Z,5.80
2022-12-05T19:07:41.834Z,5.80
2022-12-05T19:10:10.715Z,5.80
2022-12-05T19:12:39.040Z,5.80
2022-12-05T19:15:08.293Z,5.80
2022-12-05T19:17:37.855Z,5.80
2022-12-05T19:20:07.243Z,5.80
2022-12-05T19:22:35.261Z,5.80
2022-12-05T19:25:03.407Z,5.80
2022-12-05T19:27:31.488Z,5.80
2022-12-05T19:30:00.085Z,5.90
2022-12-05T19:32:29.854Z,5.90
2022-12-05T19:35:11.594Z,5.90
2022-12-05T19:37:39.604Z,5.90
2022-12-05T19:40:08.869Z,5.90
2022-12-05T19:42:36.870Z,5.90
2022-12-05T19:45:17.906Z,5.90
2022-12-05T19:47:46.328Z,5.90
2022-12-05T19:50:16.171Z,5.90
2022-12-05T19:52:44.418Z,5.80
2022-12-05T19:55:12.931Z,5.80
2022-12-05T19:57:41.330Z,5.80
2022-12-05T20:00:10.460Z,5.90
2022-12-05T20:02:40.257Z,5.80
2022-12-05T20:05:09.107Z,5.80
2022-12-05T20:08:01.516Z,5.80
2022-12-05T20:10:29.568Z,5.80
2022-12-05T20:12:57.569Z,5.80
2022-12-05T20:15:25.787Z,5.90
2022-12-05T20:17:54.537Z,5.80
2022-12-05T20:20:23.071Z,5.80
2022-12-05T20:22:51.858Z,5.80
2022-12-05T20:25:21.230Z,5.80
2022-12-05T20:27:49.206Z,5.80
2022-12-05T20:30:17.276Z,5.80
2022-12-05T20:32:45.407Z,5.60
2022-12-05T20:35:13.377Z,5.70
2022-12-05T20:37:41.358Z,5.70
2022-12-05T20:40:10.051Z,5.70
2022-12-05T20:42:44.945Z,5.70
2022-12-05T20:45:14.519Z,5.70
2022-12-05T20:47:42.543Z,5.70
2022-12-05T20:50:11.511Z,5.70
2022-12-05T20:52:45.173Z,5.70
2022-12-05T20:55:14.712Z,5.70
2022-12-05T20:57:44.436Z,5.60
2022-12-05T21:00:13.166Z,5.60
2022-12-05T21:02:41.825Z,5.70
2022-12-05T21:05:13.162Z,5.60
2022-12-05T21:07:41.285Z,5.70
2022-12-05T21:10:12.346Z,5.60
2022-12-05T21:12:40.598Z,5.60
2022-12-05T21:15:11.672Z,5.60
2022-12-05T21:17:39.662Z,5.50
2022-12-05T21:20:08.965Z,5.50
2022-12-05T21:22:36.967Z,5.40
2022-12-05T21:25:05.445Z,5.40
2022-12-05T21:28:37.755Z,5.40
2022-12-05T21:31:08.949Z,5.40
2022-12-05T21:33:37.085Z,5.40
2022-12-05T21:36:06.278Z,5.40
2022-12-05T21:38:34.456Z,5.30
2022-12-05T21:41:03.751Z,5.30
2022-12-05T21:43:31.932Z,5.30
2022-12-05T21:45:59.991Z,5.20
2022-12-05T21:48:29.526Z,5.20
2022-12-05T21:50:57.873Z,5.10
2022-12-05T21:53:26.360Z,5.00
2022-12-05T21:56:01.202Z,4.90
2022-12-05T21:58:29.948Z,4.80
2022-12-05T22:00:59.375Z,4.70
2022-12-05T22:03:29.173Z,4.50
2022-12-05T22:06:04.219Z,4.50
2022-12-05T22:08:34.189Z,4.40
2022-12-05T22:11:07.050Z,4.30
2022-12-05T22:13:35.470Z,4.30
2022-12-05T22:16:04.501Z,4.20
2022-12-05T22:18:37.171Z,4.20
2022-12-05T22:21:07.301Z,4.30
2022-12-05T22:23:36.274Z,4.40
2022-12-05T22:26:07.762Z,4.30
2022-12-05T22:28:36.818Z,4.30
2022-12-05T22:31:06.983Z,4.20
2022-12-05T22:33:36.936Z,4.20
2022-12-05T22:36:07.221Z,4.30
2022-12-05T22:38:37.031Z,4.20
2022-12-05T22:41:07.350Z,4.20
2022-12-05T22:43:37.773Z,3.90
2022-12-05T22:46:07.251Z,4.20
2022-12-05T22:48:37.042Z,4.10
2022-12-05T22:51:06.941Z,4.10
2022-12-05T22:53:35.600Z,4.10
2022-12-05T22:56:05.580Z,4.20
2022-12-05T22:58:33.895Z,4.10
2022-12-05T23:01:11.115Z,4.20
2022-12-05T23:03:40.834Z,4.20
2022-12-05T23:06:11.686Z,4.20
2022-12-05T23:08:41.962Z,4.30
2022-12-05T23:11:11.172Z,4.30
2022-12-05T23:13:40.465Z,4.30
2022-12-05T23:16:10.269Z,4.20
2022-12-05T23:18:47.794Z,4.20
2022-12-05T23:21:18.225Z,4.20
2022-12-05T23:23:46.963Z,4.20
2022-12-05T23:26:18.274Z,4.20
2022-12-05T23:28:46.445Z,4.10
2022-12-05T23:31:15.134Z,4.00
2022-12-05T23:33:45.368Z,3.90
2022-12-05T23:36:15.969Z,4.00
2022-12-05T23:38:44.766Z,3.90
2022-12-05T23:41:14.741Z,3.90
2022-12-05T23:43:44.055Z,3.90
2022-12-05T23:46:13.378Z,3.90
2022-12-05T23:48:42.167Z,4.00
2022-12-05T23:51:14.396Z,4.00
2022-12-05T23:53:44.160Z,4.00
2022-12-05T23:56:14.236Z,4.10
2022-12-05T23:58:42.922Z,4.10
